sensor_id;sensor_type;location;lat;lon;timestamp;P1;durP1;ratioP1;P2;durP2;ratioP2
80565;SDS011;69915;54.862;10.730;2023-07-20T00:01:21;2.30;;;0.60;;
80565;SDS011;69915;54.862;10.730;2023-07-20T00:03:47;2.35;;;0.80;;
80565;SDS011;69915;54.862;10.730;2023-07-20T00:06:20;1.35;;;0.60;;
80565;SDS011;69915;54.862;10.730;2023-07-20T00:08:51;3.28;;;0.80;;
80565;SDS011;69915;54.862;10.730;2023-07-20T00:11:17;1.75;;;0.60;;
80565;SDS011;69915;54.862;10.730;2023-07-20T00:13:42;2.55;;;0.65;;
80565;SDS011;69915;54.862;10.730;2023-07-20T00:16:08;1.83;;;0.60;;
80565;SDS011;69915;54.862;10.730;2023-07-20T00:18:34;2.80;;;0.68;;
80565;SDS011;69915;54.862;10.730;2023-07-20T00:20:59;3.55;;;0.77;;
80565;SDS011;69915;54.862;10.730;2023-07-20T00:23:25;1.52;;;0.70;;
80565;SDS011;69915;54.862;10.730;2023-07-20T00:25:51;1.10;;;0.50;;
80565;SDS011;69915;54.862;10.730;2023-07-20T00:28:17;1.88;;;0.80;;
80565;SDS011;69915;54.862;10.730;2023-07-20T00:30:42;1.50;;;0.70;;
80565;SDS011;69915;54.862;10.730;2023-07-20T00:33:11;1.33;;;0.60;;
80565;SDS011;69915;54.862;10.730;2023-07-20T00:35:38;1.95;;;0.70;;
80565;SDS011;69915;54.862;10.730;2023-07-20T00:38:04;1.08;;;0.52;;
80565;SDS011;69915;54.862;10.730;2023-07-20T00:40:36;1.35;;;0.65;;
80565;SDS011;69915;54.862;10.730;2023-07-20T00:43:03;1.98;;;0.60;;
80565;SDS011;69915;54.862;10.730;2023-07-20T00:45:28;1.58;;;0.52;;
80565;SDS011;69915;54.862;10.730;2023-07-20T00:47:54;1.38;;;0.50;;
80565;SDS011;69915;54.862;10.730;2023-07-20T00:50:20;2.05;;;0.60;;
80565;SDS011;69915;54.862;10.730;2023-07-20T00:52:46;1.33;;;0.60;;
80565;SDS011;69915;54.862;10.730;2023-07-20T00:55:14;1.90;;;0.63;;
80565;SDS011;69915;54.862;10.730;2023-07-20T00:57:40;2.15;;;0.60;;
80565;SDS011;69915;54.862;10.730;2023-07-20T01:00:06;1.45;;;0.60;;
80565;SDS011;69915;54.862;10.730;2023-07-20T01:02:33;3.22;;;0.88;;
80565;SDS011;69915;54.862;10.730;2023-07-20T01:04:58;1.42;;;0.60;;
80565;SDS011;69915;54.862;10.730;2023-07-20T01:07:30;1.20;;;0.50;;
80565;SDS011;69915;54.862;10.730;2023-07-20T01:12:46;1.52;;;0.63;;
80565;SDS011;69915;54.862;10.730;2023-07-20T01:15:14;1.63;;;0.50;;
80565;SDS011;69915;54.862;10.730;2023-07-20T01:17:39;1.92;;;0.50;;
80565;SDS011;69915;54.862;10.730;2023-07-20T01:20:08;1.80;;;0.70;;
80565;SDS011;69915;54.862;10.730;2023-07-20T01:30:42;1.27;;;0.68;;
80565;SDS011;69915;54.862;10.730;2023-07-20T01:33:09;0.93;;;0.40;;
80565;SDS011;69915;54.862;10.730;2023-07-20T01:35:38;1.00;;;0.38;;
80565;SDS011;69915;54.862;10.730;2023-07-20T01:38:06;1.17;;;0.50;;
80565;SDS011;69915;54.862;10.730;2023-07-20T01:40:33;1.48;;;0.60;;
80565;SDS011;69915;54.862;10.730;2023-07-20T01:43:00;1.63;;;0.60;;
80565;SDS011;69915;54.862;10.730;2023-07-20T01:45:27;1.50;;;0.57;;
80565;SDS011;69915;54.862;10.730;2023-07-20T01:47:53;1.75;;;0.52;;
80565;SDS011;69915;54.862;10.730;2023-07-20T01:50:18;3.13;;;0.60;;
80565;SDS011;69915;54.862;10.730;2023-07-20T01:52:44;2.88;;;0.80;;
80565;SDS011;69915;54.862;10.730;2023-07-20T01:55:09;1.48;;;0.50;;
80565;SDS011;69915;54.862;10.730;2023-07-20T01:57:36;1.45;;;0.60;;
80565;SDS011;69915;54.862;10.730;2023-07-20T02:00:03;1.75;;;0.60;;
80565;SDS011;69915;54.862;10.730;2023-07-20T02:02:29;2.47;;;0.75;;
80565;SDS011;69915;54.862;10.730;2023-07-20T02:04:54;1.63;;;0.60;;
80565;SDS011;69915;54.862;10.730;2023-07-20T02:07:20;2.67;;;0.70;;
80565;SDS011;69915;54.862;10.730;2023-07-20T02:09:46;1.55;;;0.90;;
80565;SDS011;69915;54.862;10.730;2023-07-20T02:12:13;2.47;;;0.80;;
80565;SDS011;69915;54.862;10.730;2023-07-20T02:14:38;1.23;;;0.52;;
80565;SDS011;69915;54.862;10.730;2023-07-20T02:17:04;1.48;;;0.73;;
80565;SDS011;69915;54.862;10.730;2023-07-20T02:19:29;3.30;;;0.77;;
80565;SDS011;69915;54.862;10.730;2023-07-20T02:21:55;1.45;;;0.80;;
80565;SDS011;69915;54.862;10.730;2023-07-20T02:24:23;5.07;;;1.00;;
80565;SDS011;69915;54.862;10.730;2023-07-20T02:26:50;3.90;;;0.80;;
80565;SDS011;69915;54.862;10.730;2023-07-20T02:29:18;6.28;;;0.82;;
80565;SDS011;69915;54.862;10.730;2023-07-20T02:31:46;2.20;;;0.65;;
80565;SDS011;69915;54.862;10.730;2023-07-20T02:34:12;1.20;;;0.50;;
80565;SDS011;69915;54.862;10.730;2023-07-20T02:36:38;1.48;;;0.70;;
80565;SDS011;69915;54.862;10.730;2023-07-20T02:39:05;2.90;;;0.88;;
80565;SDS011;69915;54.862;10.730;2023-07-20T02:41:30;2.35;;;0.60;;
80565;SDS011;69915;54.862;10.730;2023-07-20T02:44:01;2.13;;;0.80;;
80565;SDS011;69915;54.862;10.730;2023-07-20T02:46:28;1.60;;;0.55;;
80565;SDS011;69915;54.862;10.730;2023-07-20T02:48:55;3.05;;;0.60;;
80565;SDS011;69915;54.862;10.730;2023-07-20T02:54:42;3.17;;;1.00;;
80565;SDS011;69915;54.862;10.730;2023-07-20T02:57:08;2.65;;;0.70;;
80565;SDS011;69915;54.862;10.730;2023-07-20T02:59:36;1.80;;;0.80;;
80565;SDS011;69915;54.862;10.730;2023-07-20T03:02:01;1.10;;;0.50;;
80565;SDS011;69915;54.862;10.730;2023-07-20T03:04:27;2.47;;;0.45;;
80565;SDS011;69915;54.862;10.730;2023-07-20T03:06:53;1.45;;;0.80;;
80565;SDS011;69915;54.862;10.730;2023-07-20T03:09:18;1.95;;;0.70;;
80565;SDS011;69915;54.862;10.730;2023-07-20T03:11:44;1.70;;;0.65;;
80565;SDS011;69915;54.862;10.730;2023-07-20T03:14:09;2.28;;;0.68;;
80565;SDS011;69915;54.862;10.730;2023-07-20T03:16:36;2.42;;;0.50;;
80565;SDS011;69915;54.862;10.730;2023-07-20T03:19:02;1.27;;;0.63;;
80565;SDS011;69915;54.862;10.730;2023-07-20T03:21:28;2.40;;;0.75;;
80565;SDS011;69915;54.862;10.730;2023-07-20T03:23:54;2.40;;;0.80;;
80565;SDS011;69915;54.862;10.730;2023-07-20T03:26:20;1.60;;;0.60;;
80565;SDS011;69915;54.862;10.730;2023-07-20T03:28:46;2.67;;;0.80;;
80565;SDS011;69915;54.862;10.730;2023-07-20T03:31:12;1.13;;;0.65;;
80565;SDS011;69915;54.862;10.730;2023-07-20T03:33:39;2.05;;;0.70;;
80565;SDS011;69915;54.862;10.730;2023-07-20T03:36:08;1.90;;;0.68;;
80565;SDS011;69915;54.862;10.730;2023-07-20T03:38:35;5.45;;;1.00;;
80565;SDS011;69915;54.862;10.730;2023-07-20T03:41:00;4.65;;;1.00;;
80565;SDS011;69915;54.862;10.730;2023-07-20T03:43:27;1.95;;;0.60;;
80565;SDS011;69915;54.862;10.730;2023-07-20T03:45:53;2.75;;;0.73;;
80565;SDS011;69915;54.862;10.730;2023-07-20T03:48:19;3.10;;;0.98;;
80565;SDS011;69915;54.862;10.730;2023-07-20T03:50:48;2.78;;;1.00;;
80565;SDS011;69915;54.862;10.730;2023-07-20T03:53:16;1.38;;;0.63;;
80565;SDS011;69915;54.862;10.730;2023-07-20T03:55:50;2.38;;;0.73;;
80565;SDS011;69915;54.862;10.730;2023-07-20T03:58:17;3.65;;;0.60;;
80565;SDS011;69915;54.862;10.730;2023-07-20T04:00:47;3.15;;;0.85;;
80565;SDS011;69915;54.862;10.730;2023-07-20T04:03:17;3.45;;;0.57;;
80565;SDS011;69915;54.862;10.730;2023-07-20T04:05:53;4.53;;;0.80;;
80565;SDS011;69915;54.862;10.730;2023-07-20T04:08:26;1.50;;;0.52;;
80565;SDS011;69915;54.862;10.730;2023-07-20T04:10:53;2.28;;;0.90;;
80565;SDS011;69915;54.862;10.730;2023-07-20T04:13:19;2.63;;;1.15;;
80565;SDS011;69915;54.862;10.730;2023-07-20T04:15:44;1.98;;;0.60;;
80565;SDS011;69915;54.862;10.730;2023-07-20T04:18:10;5.50;;;0.95;;
80565;SDS011;69915;54.862;10.730;2023-07-20T04:20:36;1.30;;;0.47;;
80565;SDS011;69915;54.862;10.730;2023-07-20T04:23:02;3.22;;;0.80;;
80565;SDS011;69915;54.862;10.730;2023-07-20T04:25:27;1.75;;;0.73;;
80565;SDS011;69915;54.862;10.730;2023-07-20T04:27:53;3.17;;;0.65;;
80565;SDS011;69915;54.862;10.730;2023-07-20T04:30:21;2.78;;;0.68;;
80565;SDS011;69915;54.862;10.730;2023-07-20T04:32:50;4.45;;;0.88;;
80565;SDS011;69915;54.862;10.730;2023-07-20T04:38:21;2.20;;;0.82;;
80565;SDS011;69915;54.862;10.730;2023-07-20T04:40:47;2.35;;;0.70;;
80565;SDS011;69915;54.862;10.730;2023-07-20T04:43:14;2.05;;;0.93;;
80565;SDS011;69915;54.862;10.730;2023-07-20T04:45:43;2.78;;;1.00;;
80565;SDS011;69915;54.862;10.730;2023-07-20T04:48:29;2.13;;;1.00;;
80565;SDS011;69915;54.862;10.730;2023-07-20T04:50:54;2.00;;;0.80;;
80565;SDS011;69915;54.862;10.730;2023-07-20T04:53:20;2.72;;;0.98;;
80565;SDS011;69915;54.862;10.730;2023-07-20T04:55:49;2.35;;;1.05;;
80565;SDS011;69915;54.862;10.730;2023-07-20T04:58:16;3.60;;;1.30;;
80565;SDS011;69915;54.862;10.730;2023-07-20T05:00:43;2.90;;;1.20;;
80565;SDS011;69915;54.862;10.730;2023-07-20T05:03:09;6.05;;;1.30;;
80565;SDS011;69915;54.862;10.730;2023-07-20T05:05:34;3.72;;;1.08;;
80565;SDS011;69915;54.862;10.730;2023-07-20T05:08:00;2.63;;;1.10;;
80565;SDS011;69915;54.862;10.730;2023-07-20T05:10:25;6.03;;;1.50;;
80565;SDS011;69915;54.862;10.730;2023-07-20T05:12:51;5.97;;;1.98;;
80565;SDS011;69915;54.862;10.730;2023-07-20T05:15:16;6.20;;;1.45;;
80565;SDS011;69915;54.862;10.730;2023-07-20T05:17:42;3.95;;;1.58;;
80565;SDS011;69915;54.862;10.730;2023-07-20T05:20:07;4.07;;;1.27;;
80565;SDS011;69915;54.862;10.730;2023-07-20T05:22:37;4.40;;;1.15;;
80565;SDS011;69915;54.862;10.730;2023-07-20T05:25:05;3.85;;;1.52;;
80565;SDS011;69915;54.862;10.730;2023-07-20T05:27:38;2.58;;;1.00;;
80565;SDS011;69915;54.862;10.730;2023-07-20T05:30:05;2.70;;;0.88;;
80565;SDS011;69915;54.862;10.730;2023-07-20T05:32:35;4.18;;;1.00;;
80565;SDS011;69915;54.862;10.730;2023-07-20T05:35:00;2.22;;;0.90;;
80565;SDS011;69915;54.862;10.730;2023-07-20T05:37:26;2.90;;;1.08;;
80565;SDS011;69915;54.862;10.730;2023-07-20T05:39:51;3.55;;;1.25;;
80565;SDS011;69915;54.862;10.730;2023-07-20T05:42:17;4.40;;;0.73;;
80565;SDS011;69915;54.862;10.730;2023-07-20T05:44:42;3.22;;;1.23;;
80565;SDS011;69915;54.862;10.730;2023-07-20T05:47:08;2.60;;;1.13;;
80565;SDS011;69915;54.862;10.730;2023-07-20T05:49:36;3.63;;;1.00;;
80565;SDS011;69915;54.862;10.730;2023-07-20T05:52:02;1.98;;;0.85;;
80565;SDS011;69915;54.862;10.730;2023-07-20T05:54:27;3.03;;;1.10;;
80565;SDS011;69915;54.862;10.730;2023-07-20T05:56:53;2.53;;;0.82;;
80565;SDS011;69915;54.862;10.730;2023-07-20T05:59:19;2.67;;;0.88;;
80565;SDS011;69915;54.862;10.730;2023-07-20T06:01:45;5.57;;;1.33;;
80565;SDS011;69915;54.862;10.730;2023-07-20T06:04:13;4.07;;;1.30;;
80565;SDS011;69915;54.862;10.730;2023-07-20T06:06:39;2.97;;;1.02;;
80565;SDS011;69915;54.862;10.730;2023-07-20T06:09:04;4.18;;;1.70;;
80565;SDS011;69915;54.862;10.730;2023-07-20T06:11:32;3.95;;;1.05;;
80565;SDS011;69915;54.862;10.730;2023-07-20T06:13:58;4.35;;;1.08;;
80565;SDS011;69915;54.862;10.730;2023-07-20T06:16:24;3.85;;;1.60;;
80565;SDS011;69915;54.862;10.730;2023-07-20T06:18:49;3.30;;;0.80;;
80565;SDS011;69915;54.862;10.730;2023-07-20T06:21:15;4.43;;;0.95;;
80565;SDS011;69915;54.862;10.730;2023-07-20T06:23:40;4.05;;;1.05;;
80565;SDS011;69915;54.862;10.730;2023-07-20T06:26:06;4.47;;;0.90;;
80565;SDS011;69915;54.862;10.730;2023-07-20T06:28:32;5.90;;;1.20;;
80565;SDS011;69915;54.862;10.730;2023-07-20T06:31:02;3.78;;;1.17;;
80565;SDS011;69915;54.862;10.730;2023-07-20T06:33:28;2.55;;;1.02;;
80565;SDS011;69915;54.862;10.730;2023-07-20T06:35:54;5.75;;;1.23;;
80565;SDS011;69915;54.862;10.730;2023-07-20T06:38:22;2.03;;;0.75;;
80565;SDS011;69915;54.862;10.730;2023-07-20T06:40:48;3.88;;;1.25;;
80565;SDS011;69915;54.862;10.730;2023-07-20T06:43:15;3.72;;;0.73;;
80565;SDS011;69915;54.862;10.730;2023-07-20T06:45:41;5.55;;;0.90;;
80565;SDS011;69915;54.862;10.730;2023-07-20T06:48:07;2.03;;;0.95;;
80565;SDS011;69915;54.862;10.730;2023-07-20T06:50:33;3.28;;;0.70;;
80565;SDS011;69915;54.862;10.730;2023-07-20T06:52:59;5.82;;;1.58;;
80565;SDS011;69915;54.862;10.730;2023-07-20T06:55:25;4.00;;;1.20;;
80565;SDS011;69915;54.862;10.730;2023-07-20T06:57:51;8.88;;;1.10;;
80565;SDS011;69915;54.862;10.730;2023-07-20T07:00:17;1.98;;;0.75;;
80565;SDS011;69915;54.862;10.730;2023-07-20T07:02:43;5.20;;;1.15;;
80565;SDS011;69915;54.862;10.730;2023-07-20T07:05:08;3.08;;;0.60;;
80565;SDS011;69915;54.862;10.730;2023-07-20T07:07:34;3.80;;;0.70;;
80565;SDS011;69915;54.862;10.730;2023-07-20T07:10:00;4.25;;;0.98;;
80565;SDS011;69915;54.862;10.730;2023-07-20T07:12:28;10.27;;;1.65;;
80565;SDS011;69915;54.862;10.730;2023-07-20T07:14:54;6.00;;;0.70;;
80565;SDS011;69915;54.862;10.730;2023-07-20T07:17:19;3.60;;;0.80;;
80565;SDS011;69915;54.862;10.730;2023-07-20T07:19:45;4.88;;;0.98;;
80565;SDS011;69915;54.862;10.730;2023-07-20T07:22:10;3.10;;;0.73;;
80565;SDS011;69915;54.862;10.730;2023-07-20T07:24:36;5.72;;;1.20;;
80565;SDS011;69915;54.862;10.730;2023-07-20T07:27:02;2.85;;;0.98;;
80565;SDS011;69915;54.862;10.730;2023-07-20T07:29:29;2.45;;;0.93;;
80565;SDS011;69915;54.862;10.730;2023-07-20T07:31:54;3.20;;;0.73;;
80565;SDS011;69915;54.862;10.730;2023-07-20T07:34:22;2.63;;;1.10;;
80565;SDS011;69915;54.862;10.730;2023-07-20T07:36:47;3.38;;;0.65;;
80565;SDS011;69915;54.862;10.730;2023-07-20T07:39:13;2.30;;;1.02;;
80565;SDS011;69915;54.862;10.730;2023-07-20T07:41:39;3.80;;;1.08;;
80565;SDS011;69915;54.862;10.730;2023-07-20T07:44:04;2.00;;;0.52;;
80565;SDS011;69915;54.862;10.730;2023-07-20T07:46:30;3.42;;;0.68;;
80565;SDS011;69915;54.862;10.730;2023-07-20T07:48:56;5.15;;;0.85;;
80565;SDS011;69915;54.862;10.730;2023-07-20T07:51:21;2.63;;;0.70;;
80565;SDS011;69915;54.862;10.730;2023-07-20T07:53:46;3.17;;;0.75;;
80565;SDS011;69915;54.862;10.730;2023-07-20T07:56:14;3.53;;;0.63;;
80565;SDS011;69915;54.862;10.730;2023-07-20T07:58:39;6.28;;;0.75;;
80565;SDS011;69915;54.862;10.730;2023-07-20T08:01:06;3.55;;;1.02;;
80565;SDS011;69915;54.862;10.730;2023-07-20T08:03:31;2.35;;;0.80;;
80565;SDS011;69915;54.862;10.730;2023-07-20T08:05:57;2.53;;;0.68;;
80565;SDS011;69915;54.862;10.730;2023-07-20T08:08:24;2.72;;;0.57;;
80565;SDS011;69915;54.862;10.730;2023-07-20T08:10:52;3.35;;;0.95;;
80565;SDS011;69915;54.862;10.730;2023-07-20T08:13:19;4.63;;;1.00;;
80565;SDS011;69915;54.862;10.730;2023-07-20T08:15:45;4.38;;;0.98;;
80565;SDS011;69915;54.862;10.730;2023-07-20T08:18:14;3.20;;;0.70;;
80565;SDS011;69915;54.862;10.730;2023-07-20T08:20:39;4.90;;;0.70;;
80565;SDS011;69915;54.862;10.730;2023-07-20T08:23:14;4.38;;;0.60;;
80565;SDS011;69915;54.862;10.730;2023-07-20T08:25:58;2.55;;;0.75;;
80565;SDS011;69915;54.862;10.730;2023-07-20T08:28:24;5.15;;;0.77;;
80565;SDS011;69915;54.862;10.730;2023-07-20T08:30:51;3.20;;;0.60;;
80565;SDS011;69915;54.862;10.730;2023-07-20T08:33:17;4.82;;;0.73;;
80565;SDS011;69915;54.862;10.730;2023-07-20T08:35:45;6.53;;;0.80;;
80565;SDS011;69915;54.862;10.730;2023-07-20T08:38:11;2.75;;;0.60;;
80565;SDS011;69915;54.862;10.730;2023-07-20T08:40:45;2.47;;;0.50;;
80565;SDS011;69915;54.862;10.730;2023-07-20T08:43:11;0.75;;;0.30;;
80565;SDS011;69915;54.862;10.730;2023-07-20T08:45:41;2.65;;;0.70;;
80565;SDS011;69915;54.862;10.730;2023-07-20T08:48:07;1.65;;;0.50;;
80565;SDS011;69915;54.862;10.730;2023-07-20T08:50:33;1.73;;;0.40;;
80565;SDS011;69915;54.862;10.730;2023-07-20T08:53:00;2.90;;;0.60;;
80565;SDS011;69915;54.862;10.730;2023-07-20T08:55:27;2.05;;;0.40;;
80565;SDS011;69915;54.862;10.730;2023-07-20T08:57:53;0.63;;;0.20;;
80565;SDS011;69915;54.862;10.730;2023-07-20T09:00:20;0.47;;;0.25;;
80565;SDS011;69915;54.862;10.730;2023-07-20T09:02:47;1.35;;;0.20;;
80565;SDS011;69915;54.862;10.730;2023-07-20T09:05:18;2.35;;;0.60;;
80565;SDS011;69915;54.862;10.730;2023-07-20T09:07:52;0.98;;;0.15;;
80565;SDS011;69915;54.862;10.730;2023-07-20T09:10:20;3.05;;;0.40;;
80565;SDS011;69915;54.862;10.730;2023-07-20T09:12:47;0.73;;;0.25;;
80565;SDS011;69915;54.862;10.730;2023-07-20T09:15:14;1.10;;;0.30;;
80565;SDS011;69915;54.862;10.730;2023-07-20T09:17:45;1.38;;;0.32;;
80565;SDS011;69915;54.862;10.730;2023-07-20T09:20:14;3.72;;;0.30;;
80565;SDS011;69915;54.862;10.730;2023-07-20T09:22:41;3.25;;;0.40;;
80565;SDS011;69915;54.862;10.730;2023-07-20T09:27:39;0.20;;;0.10;;
80565;SDS011;69915;54.862;10.730;2023-07-20T09:30:06;2.30;;;0.52;;
80565;SDS011;69915;54.862;10.730;2023-07-20T09:32:54;2.15;;;0.25;;
80565;SDS011;69915;54.862;10.730;2023-07-20T09:35:20;1.75;;;0.25;;
80565;SDS011;69915;54.862;10.730;2023-07-20T09:37:51;2.78;;;0.50;;
80565;SDS011;69915;54.862;10.730;2023-07-20T09:40:20;0.60;;;0.20;;
80565;SDS011;69915;54.862;10.730;2023-07-20T09:42:46;2.90;;;0.40;;
80565;SDS011;69915;54.862;10.730;2023-07-20T09:45:13;1.90;;;0.32;;
80565;SDS011;69915;54.862;10.730;2023-07-20T09:47:39;3.00;;;0.60;;
80565;SDS011;69915;54.862;10.730;2023-07-20T09:50:06;3.95;;;0.30;;
80565;SDS011;69915;54.862;10.730;2023-07-20T09:52:42;0.63;;;0.28;;
80565;SDS011;69915;54.862;10.730;2023-07-20T09:55:09;4.00;;;0.45;;
80565;SDS011;69915;54.862;10.730;2023-07-20T09:57:37;1.35;;;0.40;;
80565;SDS011;69915;54.862;10.730;2023-07-20T10:00:04;2.47;;;0.43;;
80565;SDS011;69915;54.862;10.730;2023-07-20T10:02:41;0.63;;;0.20;;
80565;SDS011;69915;54.862;10.730;2023-07-20T10:05:09;1.77;;;0.30;;
80565;SDS011;69915;54.862;10.730;2023-07-20T10:07:39;1.23;;;0.30;;
80565;SDS011;69915;54.862;10.730;2023-07-20T10:10:10;2.20;;;0.43;;
80565;SDS011;69915;54.862;10.730;2023-07-20T10:12:39;1.27;;;0.30;;
80565;SDS011;69915;54.862;10.730;2023-07-20T10:18:04;0.88;;;0.30;;
80565;SDS011;69915;54.862;10.730;2023-07-20T10:20:45;4.85;;;0.80;;
80565;SDS011;69915;54.862;10.730;2023-07-20T10:23:13;1.15;;;0.30;;
80565;SDS011;69915;54.862;10.730;2023-07-20T10:25:38;1.10;;;0.30;;
80565;SDS011;69915;54.862;10.730;2023-07-20T10:28:07;3.95;;;0.60;;
80565;SDS011;69915;54.862;10.730;2023-07-20T10:30:34;1.65;;;0.20;;
80565;SDS011;69915;54.862;10.730;2023-07-20T10:33:03;2.28;;;0.30;;
80565;SDS011;69915;54.862;10.730;2023-07-20T10:35:29;2.85;;;0.30;;
80565;SDS011;69915;54.862;10.730;2023-07-20T10:38:00;0.63;;;0.30;;
80565;SDS011;69915;54.862;10.730;2023-07-20T10:40:31;3.38;;;0.55;;
80565;SDS011;69915;54.862;10.730;2023-07-20T10:45:35;1.05;;;0.17;;
80565;SDS011;69915;54.862;10.730;2023-07-20T10:48:17;1.40;;;0.20;;
80565;SDS011;69915;54.862;10.730;2023-07-20T10:50:44;1.45;;;0.13;;
80565;SDS011;69915;54.862;10.730;2023-07-20T10:53:18;2.17;;;0.22;;
80565;SDS011;69915;54.862;10.730;2023-07-20T10:55:44;1.95;;;0.43;;
80565;SDS011;69915;54.862;10.730;2023-07-20T10:58:12;3.22;;;0.40;;
80565;SDS011;69915;54.862;10.730;2023-07-20T11:00:55;1.83;;;0.30;;
80565;SDS011;69915;54.862;10.730;2023-07-20T11:03:26;0.40;;;0.10;;
80565;SDS011;69915;54.862;10.730;2023-07-20T11:05:52;1.25;;;0.30;;
80565;SDS011;69915;54.862;10.730;2023-07-20T11:08:37;0.55;;;0.20;;
80565;SDS011;69915;54.862;10.730;2023-07-20T11:11:24;7.55;;;0.70;;
80565;SDS011;69915;54.862;10.730;2023-07-20T11:16:19;3.28;;;0.22;;
80565;SDS011;69915;54.862;10.730;2023-07-20T11:18:58;1.27;;;0.38;;
80565;SDS011;69915;54.862;10.730;2023-07-20T11:21:24;1.02;;;0.30;;
80565;SDS011;69915;54.862;10.730;2023-07-20T11:23:50;1.77;;;0.40;;
80565;SDS011;69915;54.862;10.730;2023-07-20T11:26:17;3.35;;;0.40;;
80565;SDS011;69915;54.862;10.730;2023-07-20T11:28:53;2.17;;;0.30;;
80565;SDS011;69915;54.862;10.730;2023-07-20T11:31:19;6.18;;;0.82;;
80565;SDS011;69915;54.862;10.730;2023-07-20T11:33:45;4.10;;;0.50;;
80565;SDS011;69915;54.862;10.730;2023-07-20T11:36:12;2.33;;;0.75;;
80565;SDS011;69915;54.862;10.730;2023-07-20T11:38:40;1.58;;;0.60;;
80565;SDS011;69915;54.862;10.730;2023-07-20T11:41:07;2.95;;;0.80;;
80565;SDS011;69915;54.862;10.730;2023-07-20T11:43:33;2.78;;;0.70;;
80565;SDS011;69915;54.862;10.730;2023-07-20T11:45:59;1.92;;;0.60;;
80565;SDS011;69915;54.862;10.730;2023-07-20T11:48:25;4.97;;;1.13;;
80565;SDS011;69915;54.862;10.730;2023-07-20T11:50:50;4.65;;;1.00;;
80565;SDS011;69915;54.862;10.730;2023-07-20T11:53:22;3.33;;;0.60;;
80565;SDS011;69915;54.862;10.730;2023-07-20T11:55:53;5.90;;;0.80;;
80565;SDS011;69915;54.862;10.730;2023-07-20T11:58:18;5.00;;;0.90;;
80565;SDS011;69915;54.862;10.730;2023-07-20T12:00:44;5.88;;;1.17;;
80565;SDS011;69915;54.862;10.730;2023-07-20T12:03:11;3.30;;;0.68;;
80565;SDS011;69915;54.862;10.730;2023-07-20T12:05:37;5.53;;;0.70;;
80565;SDS011;69915;54.862;10.730;2023-07-20T12:08:04;2.75;;;0.80;;
80565;SDS011;69915;54.862;10.730;2023-07-20T12:10:29;3.25;;;0.88;;
80565;SDS011;69915;54.862;10.730;2023-07-20T12:13:00;3.75;;;0.70;;
80565;SDS011;69915;54.862;10.730;2023-07-20T12:15:27;5.20;;;1.13;;
80565;SDS011;69915;54.862;10.730;2023-07-20T12:17:55;5.63;;;1.23;;
80565;SDS011;69915;54.862;10.730;2023-07-20T12:20:29;3.72;;;1.05;;
80565;SDS011;69915;54.862;10.730;2023-07-20T12:23:02;4.15;;;1.00;;
80565;SDS011;69915;54.862;10.730;2023-07-20T12:25:42;6.68;;;0.80;;
80565;SDS011;69915;54.862;10.730;2023-07-20T12:28:16;2.05;;;0.52;;
80565;SDS011;69915;54.862;10.730;2023-07-20T12:30:44;5.90;;;0.90;;
80565;SDS011;69915;54.862;10.730;2023-07-20T12:33:11;1.73;;;0.65;;
80565;SDS011;69915;54.862;10.730;2023-07-20T12:35:40;3.75;;;0.70;;
80565;SDS011;69915;54.862;10.730;2023-07-20T12:38:06;3.15;;;0.80;;
80565;SDS011;69915;54.862;10.730;2023-07-20T12:40:31;1.20;;;0.55;;
80565;SDS011;69915;54.862;10.730;2023-07-20T12:42:57;4.93;;;0.70;;
80565;SDS011;69915;54.862;10.730;2023-07-20T12:45:23;3.75;;;0.75;;
80565;SDS011;69915;54.862;10.730;2023-07-20T12:47:48;2.95;;;0.82;;
80565;SDS011;69915;54.862;10.730;2023-07-20T12:50:14;4.00;;;1.10;;
80565;SDS011;69915;54.862;10.730;2023-07-20T12:52:39;8.65;;;0.90;;
80565;SDS011;69915;54.862;10.730;2023-07-20T12:55:06;4.53;;;0.75;;
80565;SDS011;69915;54.862;10.730;2023-07-20T12:57:33;5.00;;;0.95;;
80565;SDS011;69915;54.862;10.730;2023-07-20T13:00:00;3.83;;;1.05;;
80565;SDS011;69915;54.862;10.730;2023-07-20T13:02:28;3.90;;;1.00;;
80565;SDS011;69915;54.862;10.730;2023-07-20T13:04:53;5.88;;;1.00;;
80565;SDS011;69915;54.862;10.730;2023-07-20T13:07:22;3.72;;;0.93;;
80565;SDS011;69915;54.862;10.730;2023-07-20T13:09:55;3.75;;;0.70;;
80565;SDS011;69915;54.862;10.730;2023-07-20T13:12:20;1.55;;;0.40;;
80565;SDS011;69915;54.862;10.730;2023-07-20T13:14:46;4.13;;;0.70;;
80565;SDS011;69915;54.862;10.730;2023-07-20T13:17:11;3.53;;;0.85;;
80565;SDS011;69915;54.862;10.730;2023-07-20T13:19:37;5.43;;;0.90;;
80565;SDS011;69915;54.862;10.730;2023-07-20T13:22:02;9.80;;;1.05;;
80565;SDS011;69915;54.862;10.730;2023-07-20T13:24:28;6.88;;;0.82;;
80565;SDS011;69915;54.862;10.730;2023-07-20T13:26:53;2.90;;;0.90;;
80565;SDS011;69915;54.862;10.730;2023-07-20T13:29:19;4.15;;;1.10;;
80565;SDS011;69915;54.862;10.730;2023-07-20T13:31:44;4.78;;;1.95;;
80565;SDS011;69915;54.862;10.730;2023-07-20T13:34:10;3.30;;;0.90;;
80565;SDS011;69915;54.862;10.730;2023-07-20T13:36:35;4.55;;;0.88;;
80565;SDS011;69915;54.862;10.730;2023-07-20T13:39:01;7.57;;;1.35;;
80565;SDS011;69915;54.862;10.730;2023-07-20T13:41:29;2.85;;;0.95;;
80565;SDS011;69915;54.862;10.730;2023-07-20T13:43:57;2.63;;;0.77;;
80565;SDS011;69915;54.862;10.730;2023-07-20T13:46:22;1.88;;;0.63;;
80565;SDS011;69915;54.862;10.730;2023-07-20T13:48:48;4.05;;;0.75;;
80565;SDS011;69915;54.862;10.730;2023-07-20T13:51:14;2.88;;;0.82;;
80565;SDS011;69915;54.862;10.730;2023-07-20T13:53:39;3.00;;;0.93;;
80565;SDS011;69915;54.862;10.730;2023-07-20T13:56:06;5.90;;;1.33;;
80565;SDS011;69915;54.862;10.730;2023-07-20T13:58:32;4.15;;;1.05;;
80565;SDS011;69915;54.862;10.730;2023-07-20T14:00:58;2.45;;;0.68;;
80565;SDS011;69915;54.862;10.730;2023-07-20T14:03:24;4.15;;;1.70;;
80565;SDS011;69915;54.862;10.730;2023-07-20T14:05:50;3.40;;;1.10;;
80565;SDS011;69915;54.862;10.730;2023-07-20T14:08:15;3.35;;;1.00;;
80565;SDS011;69915;54.862;10.730;2023-07-20T14:10:41;6.15;;;1.02;;
80565;SDS011;69915;54.862;10.730;2023-07-20T14:13:06;6.28;;;1.13;;
80565;SDS011;69915;54.862;10.730;2023-07-20T14:15:33;6.60;;;1.20;;
80565;SDS011;69915;54.862;10.730;2023-07-20T14:18:00;3.10;;;0.65;;
80565;SDS011;69915;54.862;10.730;2023-07-20T14:20:25;2.30;;;0.80;;
80565;SDS011;69915;54.862;10.730;2023-07-20T14:22:51;5.57;;;1.10;;
80565;SDS011;69915;54.862;10.730;2023-07-20T14:25:16;3.08;;;0.80;;
80565;SDS011;69915;54.862;10.730;2023-07-20T14:27:42;2.47;;;0.90;;
80565;SDS011;69915;54.862;10.730;2023-07-20T14:30:07;3.45;;;0.88;;
80565;SDS011;69915;54.862;10.730;2023-07-20T14:32:34;3.55;;;0.80;;
80565;SDS011;69915;54.862;10.730;2023-07-20T14:34:59;4.07;;;1.00;;
80565;SDS011;69915;54.862;10.730;2023-07-20T14:37:25;5.07;;;1.60;;
80565;SDS011;69915;54.862;10.730;2023-07-20T14:39:50;2.38;;;0.82;;
80565;SDS011;69915;54.862;10.730;2023-07-20T14:42:16;6.28;;;0.95;;
80565;SDS011;69915;54.862;10.730;2023-07-20T14:44:41;17.77;;;1.85;;
80565;SDS011;69915;54.862;10.730;2023-07-20T14:47:07;2.10;;;0.57;;
80565;SDS011;69915;54.862;10.730;2023-07-20T14:49:32;4.05;;;0.98;;
80565;SDS011;69915;54.862;10.730;2023-07-20T14:51:57;3.25;;;1.08;;
80565;SDS011;69915;54.862;10.730;2023-07-20T14:54:23;6.38;;;0.85;;
80565;SDS011;69915;54.862;10.730;2023-07-20T14:56:49;2.63;;;0.80;;
80565;SDS011;69915;54.862;10.730;2023-07-20T14:59:17;2.97;;;0.90;;
80565;SDS011;69915;54.862;10.730;2023-07-20T15:01:43;4.65;;;0.80;;